< < Back
Terminal Aerodrome Forecast


Current Version              Previous Versions:   1  2  3  4  5  6  7  8  9  

Terminal Aerodrome Forecast

557
FTUS44 KHUN 070541
TAFHSV
TAF
KHSV 070541Z 0706/0806 20003KT P6SM SCT250
     FM070900 20003KT P6SM FEW015 SCT025 BKN080
      TEMPO 0710/0712 5SM BR
     FM071400 23010KT P6SM SCT030 SCT150
     FM080000 20003KT P6SM SCT150=

Latest METAR

772
SAUS80 KWBC 070800 RRC
MTRHSV
METAR KHSV 070753Z AUTO 13004KT 8SM CLR 23/21 A3010 RMK AO2 SLP185
T02330211


USA.gov is the U.S. government's official web portal to all federal, state and local government web resources and services.